createdAt,value
2023-03-26T00:01:24.006Z,6.05
2023-03-26T00:03:54.761Z,7.00
2023-03-26T00:06:24.495Z,8.48
2023-03-26T00:08:55.640Z,6.60
2023-03-26T00:11:25.026Z,6.07
2023-03-26T00:13:57.053Z,5.03
2023-03-26T00:16:27.880Z,5.38
2023-03-26T00:18:57.849Z,5.72
2023-03-26T00:21:28.885Z,4.22
2023-03-26T00:26:29.837Z,4.85
2023-03-26T00:29:00.272Z,4.30
2023-03-26T00:31:28.731Z,3.92
2023-03-26T00:33:57.858Z,3.80
2023-03-26T00:36:27.135Z,3.20
2023-03-26T00:38:56.278Z,3.03
2023-03-26T00:41:31.048Z,7.28
2023-03-26T00:44:00.902Z,5.30
2023-03-26T00:46:30.699Z,6.20
2023-03-26T00:48:59.933Z,4.20
2023-03-26T00:51:29.759Z,5.95
2023-03-26T00:53:59.044Z,5.40
2023-03-26T00:56:28.754Z,5.38
2023-03-26T00:58:57.874Z,4.97
2023-03-26T01:01:28.791Z,4.63
2023-03-26T01:04:08.793Z,5.30
2023-03-26T01:06:39.065Z,6.07
2023-03-26T01:09:14.152Z,5.28
2023-03-26T01:11:43.824Z,6.32
2023-03-26T01:14:14.452Z,4.68
2023-03-26T01:16:46.240Z,5.50
2023-03-26T01:19:22.924Z,5.40
2023-03-26T01:21:51.150Z,5.53
2023-03-26T01:24:22.187Z,4.95
2023-03-26T01:27:11.605Z,8.18
2023-03-26T01:29:44.853Z,8.77
2023-03-26T01:32:40.481Z,6.28
2023-03-26T01:35:17.355Z,8.18
2023-03-26T01:37:53.662Z,5.30
2023-03-26T01:40:27.462Z,5.30
2023-03-26T01:42:59.201Z,5.97
2023-03-26T01:45:29.947Z,4.65
2023-03-26T01:47:58.440Z,6.13
2023-03-26T01:50:27.248Z,4.22
2023-03-26T01:52:55.519Z,5.18
2023-03-26T01:55:27.081Z,4.20
2023-03-26T01:58:01.071Z,4.22
2023-03-26T02:00:31.399Z,4.95
2023-03-26T02:03:06.396Z,2.88
2023-03-26T02:05:37.983Z,4.28
2023-03-26T02:08:12.052Z,4.28
2023-03-26T02:10:44.288Z,3.63
2023-03-26T02:13:12.944Z,3.05
2023-03-26T02:15:42.133Z,3.92
2023-03-26T02:18:11.008Z,4.72
2023-03-26T02:20:39.636Z,3.30
2023-03-26T02:23:08.875Z,4.25
2023-03-26T02:25:39.938Z,2.85
2023-03-26T02:28:09.730Z,3.05
2023-03-26T02:30:38.415Z,2.33
2023-03-26T02:33:06.915Z,2.30
2023-03-26T02:35:35.545Z,5.03
2023-03-26T02:38:04.084Z,3.13
2023-03-26T02:40:32.567Z,5.50
2023-03-26T02:43:01.046Z,4.95
2023-03-26T02:45:31.037Z,4.63
2023-03-26T02:48:01.227Z,3.97
2023-03-26T02:50:32.608Z,3.40
2023-03-26T02:53:00.883Z,7.05
2023-03-26T02:55:29.452Z,6.15
2023-03-26T02:57:58.013Z,5.35
2023-03-26T03:00:26.593Z,3.40
2023-03-26T03:02:58.139Z,4.30
2023-03-26T03:05:27.263Z,5.10
2023-03-26T03:07:58.423Z,3.42
2023-03-26T03:10:27.739Z,3.97
2023-03-26T03:12:56.524Z,3.72
2023-03-26T03:15:25.117Z,4.78
2023-03-26T03:17:53.484Z,3.85
2023-03-26T03:20:23.615Z,3.35
2023-03-26T03:22:51.884Z,6.05
2023-03-26T03:25:22.288Z,4.07
2023-03-26T03:27:50.705Z,3.08
2023-03-26T03:30:19.392Z,4.70
2023-03-26T03:32:48.235Z,3.35
2023-03-26T03:35:16.944Z,4.57
2023-03-26T03:37:46.709Z,8.23
2023-03-26T03:40:15.272Z,3.47
2023-03-26T03:42:43.634Z,5.90
2023-03-26T03:45:12.738Z,3.40
2023-03-26T03:47:41.013Z,5.45
2023-03-26T03:50:11.416Z,3.25
2023-03-26T03:52:39.704Z,4.47
2023-03-26T03:55:11.272Z,4.00
2023-03-26T03:57:39.400Z,2.55
2023-03-26T04:00:11.871Z,3.65
2023-03-26T04:02:43.138Z,2.67
2023-03-26T04:05:12.251Z,4.40
2023-03-26T04:07:40.883Z,3.65
2023-03-26T04:10:13.705Z,4.55
2023-03-26T04:12:41.976Z,4.20
2023-03-26T04:15:11.317Z,6.35
2023-03-26T04:17:42.747Z,6.57
2023-03-26T04:20:14.984Z,4.15
2023-03-26T04:22:43.701Z,3.67
2023-03-26T04:25:15.696Z,4.65
2023-03-26T04:27:44.225Z,3.78
2023-03-26T04:30:15.804Z,2.95
2023-03-26T04:32:44.818Z,4.65
2023-03-26T04:35:14.882Z,4.07
2023-03-26T04:37:44.447Z,3.05
2023-03-26T04:40:17.701Z,3.05
2023-03-26T04:42:46.667Z,4.35
2023-03-26T04:45:17.817Z,3.85
2023-03-26T04:47:46.786Z,4.47
2023-03-26T04:50:15.898Z,3.15
2023-03-26T04:52:45.259Z,5.25
2023-03-26T04:55:23.163Z,4.50
2023-03-26T04:57:54.745Z,5.20
2023-03-26T05:00:23.444Z,5.80
2023-03-26T05:02:54.010Z,4.63
2023-03-26T05:05:23.084Z,3.70
2023-03-26T05:07:51.307Z,3.45
2023-03-26T05:10:21.751Z,3.88
2023-03-26T05:12:50.531Z,4.10
2023-03-26T05:15:19.182Z,4.40
2023-03-26T05:17:48.530Z,4.72
2023-03-26T05:20:21.001Z,3.85
2023-03-26T05:22:50.463Z,2.85
2023-03-26T05:25:21.169Z,3.30
2023-03-26T05:27:49.494Z,5.35
2023-03-26T05:30:20.027Z,3.55
2023-03-26T05:32:49.496Z,2.92
2023-03-26T05:35:18.271Z,4.45
2023-03-26T05:37:46.929Z,3.28
2023-03-26T05:40:17.253Z,4.50
2023-03-26T05:42:47.531Z,3.30
2023-03-26T05:45:16.661Z,2.67
2023-03-26T05:47:45.157Z,2.33
2023-03-26T05:50:13.697Z,3.85
2023-03-26T05:52:42.032Z,4.18
2023-03-26T05:55:11.422Z,3.50
2023-03-26T05:57:40.370Z,4.25
2023-03-26T06:00:12.281Z,4.80
2023-03-26T06:02:42.983Z,4.38
2023-03-26T06:05:12.550Z,4.40
2023-03-26T06:07:40.882Z,3.55
2023-03-26T06:10:10.784Z,3.38
2023-03-26T06:12:46.522Z,13.82
2023-03-26T06:15:16.691Z,9.13
2023-03-26T06:17:45.007Z,4.13
2023-03-26T06:20:14.168Z,4.78
2023-03-26T06:22:42.495Z,4.43
2023-03-26T06:25:10.942Z,5.03
2023-03-26T06:27:39.751Z,3.80
2023-03-26T06:30:09.919Z,6.28
2023-03-26T06:32:39.635Z,16.13
2023-03-26T06:35:09.110Z,5.85
2023-03-26T06:37:37.349Z,6.28
2023-03-26T06:40:07.261Z,4.70
2023-03-26T06:43:07.733Z,6.93
2023-03-26T06:45:24.313Z,6.00
2023-03-26T06:47:53.925Z,7.57
2023-03-26T06:50:22.501Z,4.78
2023-03-26T06:52:51.415Z,6.82
2023-03-26T06:55:20.008Z,3.97
2023-03-26T06:57:50.276Z,6.47
2023-03-26T07:00:19.834Z,6.28
2023-03-26T07:02:48.678Z,5.32
2023-03-26T07:05:18.836Z,4.15
2023-03-26T07:07:47.422Z,6.53
2023-03-26T07:10:16.796Z,6.63
2023-03-26T07:12:45.172Z,4.55
2023-03-26T07:15:13.806Z,3.85
2023-03-26T07:17:42.010Z,4.32
2023-03-26T07:20:11.973Z,3.55
2023-03-26T07:22:42.570Z,3.75
2023-03-26T07:25:13.141Z,5.88
2023-03-26T07:27:48.737Z,4.82
2023-03-26T07:30:21.899Z,5.20
2023-03-26T07:32:54.888Z,4.47
2023-03-26T07:35:25.843Z,4.70
2023-03-26T07:38:04.482Z,3.53
2023-03-26T07:40:45.616Z,5.68
2023-03-26T07:43:22.163Z,4.88
2023-03-26T07:45:51.487Z,4.32
2023-03-26T07:48:21.446Z,7.38
2023-03-26T07:50:50.774Z,10.77
2023-03-26T07:53:21.199Z,14.02
2023-03-26T07:55:54.821Z,7.40
2023-03-26T07:58:41.531Z,7.57
2023-03-26T08:01:13.889Z,9.20
2023-03-26T08:03:59.503Z,9.68
2023-03-26T08:06:50.892Z,8.73
2023-03-26T08:09:24.801Z,8.23
2023-03-26T08:11:57.948Z,7.00
2023-03-26T08:14:35.796Z,4.18
2023-03-26T08:17:09.353Z,3.75
2023-03-26T08:19:46.482Z,3.47
2023-03-26T08:22:20.913Z,5.60
2023-03-26T08:25:02.128Z,3.75
2023-03-26T08:30:04.522Z,4.20
2023-03-26T08:32:35.474Z,7.60
2023-03-26T08:35:05.365Z,6.60
2023-03-26T08:37:33.970Z,4.55
2023-03-26T08:40:18.303Z,3.65
2023-03-26T08:43:10.831Z,4.28
2023-03-26T08:46:02.771Z,7.40
2023-03-26T08:49:04.960Z,5.20
2023-03-26T08:52:05.693Z,2.60
2023-03-26T08:54:49.177Z,3.88
2023-03-26T08:57:36.297Z,3.40
2023-03-26T09:00:26.813Z,4.38
2023-03-26T09:03:33.288Z,4.03
2023-03-26T09:06:34.268Z,2.85
2023-03-26T09:09:22.622Z,4.38
2023-03-26T09:12:13.721Z,6.63
2023-03-26T09:15:23.218Z,4.63
2023-03-26T09:18:24.240Z,9.93
2023-03-26T09:21:02.198Z,6.30
2023-03-26T09:23:58.773Z,5.55
2023-03-26T09:26:29.558Z,9.35
2023-03-26T09:29:37.010Z,8.55
2023-03-26T09:32:48.636Z,12.70
2023-03-26T09:38:03.538Z,9.32
2023-03-26T09:40:38.912Z,12.73
2023-03-26T09:43:36.418Z,5.68
2023-03-26T09:46:14.146Z,14.80
2023-03-26T09:49:11.015Z,11.90
2023-03-26T09:51:58.478Z,10.88
2023-03-26T09:54:51.228Z,5.28
2023-03-26T09:57:29.944Z,6.03
2023-03-26T10:00:06.602Z,5.07
2023-03-26T10:02:58.455Z,5.55
2023-03-26T10:08:30.856Z,5.70
2023-03-26T10:11:04.580Z,3.38
2023-03-26T10:13:40.899Z,4.28
2023-03-26T10:16:17.397Z,4.10
2023-03-26T10:18:54.770Z,3.55
2023-03-26T10:21:31.465Z,4.75
2023-03-26T10:24:13.242Z,3.92
2023-03-26T10:29:59.374Z,4.15
2023-03-26T10:32:32.526Z,5.15
2023-03-26T10:35:10.555Z,5.45
2023-03-26T10:37:49.249Z,5.15
2023-03-26T10:40:22.526Z,4.90
2023-03-26T10:43:24.237Z,4.70
2023-03-26T10:46:07.883Z,5.90
2023-03-26T10:48:52.942Z,4.10
2023-03-26T10:51:53.540Z,4.75
2023-03-26T10:54:31.102Z,3.15
2023-03-26T10:57:02.190Z,3.58
2023-03-26T10:59:30.770Z,4.00
2023-03-26T11:02:30.240Z,3.40
2023-03-26T11:05:22.333Z,3.22
2023-03-26T11:07:54.196Z,5.95
2023-03-26T11:10:37.392Z,3.72
2023-03-26T11:13:18.524Z,4.82
2023-03-26T11:15:50.230Z,1.88
2023-03-26T11:18:22.949Z,2.97
2023-03-26T11:21:18.748Z,2.65
2023-03-26T11:24:05.152Z,2.58
2023-03-26T11:26:40.768Z,3.40
2023-03-26T11:29:30.858Z,3.92
2023-03-26T11:32:06.922Z,3.15
2023-03-26T11:34:38.545Z,4.82
2023-03-26T11:39:44.227Z,2.00
2023-03-26T11:42:15.984Z,3.75
2023-03-26T11:44:49.474Z,2.88
2023-03-26T11:47:23.044Z,2.40
2023-03-26T11:49:53.145Z,2.05
2023-03-26T11:52:21.766Z,2.95
2023-03-26T11:54:50.781Z,1.73
2023-03-26T11:57:21.260Z,2.80
2023-03-26T11:59:57.987Z,4.20
2023-03-26T12:02:32.571Z,6.20
2023-03-26T12:05:13.366Z,4.85
2023-03-26T12:07:47.628Z,4.22
2023-03-26T12:10:27.948Z,3.03
2023-03-26T12:12:57.782Z,3.80
2023-03-26T12:15:28.872Z,3.25
2023-03-26T12:17:58.716Z,4.47
2023-03-26T12:20:38.867Z,5.45
2023-03-26T12:23:08.260Z,5.55
2023-03-26T12:25:38.929Z,4.07
2023-03-26T12:28:18.460Z,3.35
2023-03-26T12:31:00.901Z,2.08
2023-03-26T12:33:34.232Z,5.70
2023-03-26T12:36:20.707Z,2.17
2023-03-26T12:39:16.124Z,1.90
2023-03-26T12:44:42.504Z,3.63
2023-03-26T12:44:54.826Z,2.47
2023-03-26T12:47:57.630Z,2.92
2023-03-26T12:50:15.168Z,2.72
2023-03-26T12:55:30.161Z,4.13
2023-03-26T12:58:13.752Z,3.78
2023-03-26T13:00:50.669Z,3.40
2023-03-26T13:03:31.998Z,2.83
2023-03-26T13:06:16.283Z,3.25
2023-03-26T13:09:05.062Z,3.65
2023-03-26T13:11:39.275Z,2.08
2023-03-26T13:14:32.679Z,3.33
2023-03-26T13:17:05.995Z,5.50
2023-03-26T13:19:40.811Z,3.42
2023-03-26T13:22:19.370Z,8.10
2023-03-26T13:24:53.718Z,5.00
2023-03-26T13:27:46.027Z,5.20
2023-03-26T13:30:22.857Z,4.10
2023-03-26T13:33:01.787Z,7.35
2023-03-26T13:35:35.808Z,11.27
2023-03-26T13:38:07.638Z,10.45
2023-03-26T13:40:44.362Z,4.97
2023-03-26T13:43:29.590Z,5.60
2023-03-26T13:46:03.617Z,8.52
2023-03-26T13:48:36.544Z,4.32
2023-03-26T13:51:11.406Z,3.10
2023-03-26T13:53:44.323Z,4.78
2023-03-26T13:56:16.245Z,5.93
2023-03-26T13:58:48.205Z,7.00
2023-03-26T14:01:19.703Z,8.27
2023-03-26T14:03:54.018Z,6.38
2023-03-26T14:06:34.263Z,7.03
2023-03-26T14:09:06.733Z,10.75
2023-03-26T14:11:45.206Z,11.43
2023-03-26T14:14:17.516Z,19.88
2023-03-26T14:16:51.068Z,10.18
2023-03-26T14:19:44.439Z,4.60
2023-03-26T14:22:19.546Z,9.57
2023-03-26T14:24:55.951Z,8.77
2023-03-26T14:27:39.707Z,10.82
2023-03-26T14:30:24.369Z,15.18
2023-03-26T14:33:04.326Z,6.93
2023-03-26T14:35:37.908Z,5.68
2023-03-26T14:38:33.092Z,4.97
2023-03-26T14:41:10.226Z,6.40
2023-03-26T14:44:07.968Z,5.53
2023-03-26T14:46:52.440Z,4.65
2023-03-26T14:49:31.154Z,4.85
2023-03-26T14:52:11.038Z,4.75
2023-03-26T14:54:44.371Z,5.13
2023-03-26T14:57:48.647Z,7.95
2023-03-26T15:00:49.826Z,6.30
2023-03-26T15:04:08.822Z,4.07
2023-03-26T15:07:20.852Z,6.60
2023-03-26T15:10:16.174Z,4.28
2023-03-26T15:12:55.956Z,4.97
2023-03-26T15:15:54.290Z,4.47
2023-03-26T15:19:12.122Z,5.78
2023-03-26T15:22:30.773Z,6.32
2023-03-26T15:25:35.397Z,4.80
2023-03-26T15:28:40.108Z,6.15
2023-03-26T15:31:47.657Z,4.28
2023-03-26T15:34:33.842Z,6.82
2023-03-26T15:37:50.146Z,5.15
2023-03-26T15:40:38.310Z,3.95
2023-03-26T15:43:12.512Z,4.03
2023-03-26T15:45:42.208Z,5.00
2023-03-26T15:48:34.439Z,3.72
2023-03-26T15:51:19.282Z,5.00
2023-03-26T15:53:54.171Z,5.35
2023-03-26T15:56:43.876Z,4.63
2023-03-26T15:59:27.000Z,5.57
2023-03-26T16:02:03.104Z,4.97
2023-03-26T16:04:50.755Z,5.68
2023-03-26T16:07:47.974Z,7.15
2023-03-26T16:10:31.343Z,5.68
2023-03-26T16:13:36.338Z,7.45
2023-03-26T16:16:25.740Z,6.85
2023-03-26T16:18:59.566Z,5.13
2023-03-26T16:22:06.325Z,7.82
2023-03-26T16:24:36.360Z,7.13
2023-03-26T16:27:21.890Z,6.20
2023-03-26T16:30:32.895Z,7.20
2023-03-26T16:33:17.734Z,4.97
2023-03-26T16:36:18.489Z,5.05
2023-03-26T16:38:50.469Z,5.53
2023-03-26T16:41:20.269Z,9.82
2023-03-26T16:43:54.407Z,11.70
2023-03-26T16:46:33.166Z,5.20
2023-03-26T16:49:09.189Z,6.05
2023-03-26T16:51:54.182Z,6.18
2023-03-26T16:54:27.103Z,6.88
2023-03-26T16:57:02.180Z,5.47
2023-03-26T17:00:04.932Z,6.15
2023-03-26T17:02:48.151Z,8.02
2023-03-26T17:05:22.297Z,5.72
2023-03-26T17:07:56.493Z,6.82
2023-03-26T17:10:32.215Z,4.88
2023-03-26T17:13:05.340Z,7.22
2023-03-26T17:15:42.302Z,10.57
2023-03-26T17:18:35.160Z,8.18
2023-03-26T17:21:10.702Z,11.05
2023-03-26T17:23:53.293Z,14.65
2023-03-26T17:26:24.891Z,12.18
2023-03-26T17:31:38.909Z,9.32
2023-03-26T17:34:49.748Z,12.20
2023-03-26T17:37:50.628Z,19.42
2023-03-26T17:40:47.009Z,17.80
2023-03-26T17:43:34.333Z,18.73
2023-03-26T17:46:03.687Z,12.27
2023-03-26T17:48:35.648Z,16.35
2023-03-26T17:51:18.866Z,15.77
2023-03-26T17:53:49.099Z,15.02
2023-03-26T17:56:20.014Z,12.35
2023-03-26T17:58:52.720Z,14.85
2023-03-26T18:01:24.266Z,14.27
2023-03-26T18:03:56.078Z,15.40
2023-03-26T18:06:40.184Z,13.15
2023-03-26T18:09:20.626Z,14.10
2023-03-26T18:12:01.971Z,13.98
2023-03-26T18:15:05.896Z,12.80
2023-03-26T18:17:41.041Z,12.15
2023-03-26T18:20:21.733Z,10.88
2023-03-26T18:22:51.672Z,10.25
2023-03-26T18:25:26.278Z,10.48
2023-03-26T18:27:54.611Z,9.00
2023-03-26T18:30:24.693Z,9.55
2023-03-26T18:33:00.144Z,13.15
2023-03-26T18:35:42.336Z,10.20
2023-03-26T18:40:44.262Z,9.63
2023-03-26T18:46:01.165Z,12.68
2023-03-26T18:48:30.345Z,9.32
2023-03-26T18:51:04.951Z,8.63
2023-03-26T18:53:38.617Z,8.77
2023-03-26T18:56:22.120Z,8.80
2023-03-26T18:58:53.673Z,7.25
2023-03-26T19:01:26.161Z,7.40
2023-03-26T19:03:55.406Z,8.35
2023-03-26T19:06:24.939Z,7.15
2023-03-26T19:08:54.489Z,5.00
2023-03-26T19:11:25.777Z,6.57
2023-03-26T19:14:03.561Z,6.03
2023-03-26T19:16:36.613Z,5.50
2023-03-26T19:19:07.406Z,5.03
2023-03-26T19:21:36.754Z,7.70
2023-03-26T19:24:06.326Z,5.75
2023-03-26T19:26:36.757Z,7.10
2023-03-26T19:29:05.648Z,6.03
2023-03-26T19:31:36.297Z,7.80
2023-03-26T19:34:20.160Z,7.03
2023-03-26T19:36:58.370Z,6.82
2023-03-26T19:39:36.840Z,5.97
2023-03-26T19:42:08.898Z,7.05
2023-03-26T19:44:39.712Z,9.02
2023-03-26T19:47:10.105Z,5.68
2023-03-26T19:49:43.378Z,8.18
2023-03-26T19:52:16.145Z,6.10
2023-03-26T19:54:59.774Z,6.32
2023-03-26T19:57:32.674Z,5.65
2023-03-26T20:00:01.362Z,6.22
2023-03-26T20:02:30.463Z,5.68
2023-03-26T20:04:59.137Z,8.70
2023-03-26T20:07:35.862Z,7.47
2023-03-26T20:10:05.897Z,10.55
2023-03-26T20:12:35.873Z,11.60
2023-03-26T20:15:19.620Z,10.98
2023-03-26T20:17:50.266Z,7.63
2023-03-26T20:20:19.725Z,7.70
2023-03-26T20:22:48.418Z,6.47
2023-03-26T20:25:20.248Z,5.70
2023-03-26T20:27:53.142Z,6.90
2023-03-26T20:30:36.874Z,9.70
2023-03-26T20:33:13.458Z,8.48
2023-03-26T20:35:43.291Z,9.32
2023-03-26T20:38:12.064Z,10.98
2023-03-26T20:40:41.075Z,9.77
2023-03-26T20:43:16.371Z,8.57
2023-03-26T20:45:44.554Z,10.18
2023-03-26T20:48:13.234Z,8.80
2023-03-26T20:50:50.730Z,8.55
2023-03-26T20:53:30.515Z,9.48
2023-03-26T20:55:58.983Z,9.35
2023-03-26T20:58:32.056Z,7.40
2023-03-26T21:01:02.215Z,6.50
2023-03-26T21:03:33.273Z,8.10
2023-03-26T21:06:02.402Z,11.67
2023-03-26T21:08:37.216Z,9.95
2023-03-26T21:11:07.561Z,10.90
2023-03-26T21:13:41.169Z,8.77
2023-03-26T21:16:13.169Z,9.77
2023-03-26T21:18:42.700Z,9.05
2023-03-26T21:21:28.180Z,8.57
2023-03-26T21:24:00.723Z,8.50
2023-03-26T21:26:32.161Z,7.68
2023-03-26T21:29:02.881Z,6.63
2023-03-26T21:31:36.743Z,7.82
2023-03-26T21:34:07.371Z,7.90
2023-03-26T21:36:36.855Z,6.03
2023-03-26T21:39:06.544Z,7.88
2023-03-26T21:41:43.707Z,5.88
2023-03-26T21:44:14.434Z,8.40
2023-03-26T21:46:44.042Z,5.83
2023-03-26T21:49:14.335Z,8.38
2023-03-26T21:51:43.025Z,11.82
2023-03-26T21:54:22.942Z,11.93
2023-03-26T21:56:58.101Z,10.60
2023-03-26T21:59:34.583Z,12.88
2023-03-26T22:02:08.617Z,10.35
2023-03-26T22:04:40.777Z,9.85
2023-03-26T22:07:14.246Z,11.15
2023-03-26T22:09:43.907Z,9.43
2023-03-26T22:12:12.570Z,11.63
2023-03-26T22:14:42.520Z,11.07
2023-03-26T22:17:10.822Z,8.68
2023-03-26T22:19:39.360Z,10.50
2023-03-26T22:22:07.672Z,12.65
2023-03-26T22:24:36.119Z,13.82
2023-03-26T22:27:04.569Z,8.93
2023-03-26T22:29:33.546Z,7.43
2023-03-26T22:32:04.219Z,7.00
2023-03-26T22:34:35.210Z,9.32
2023-03-26T22:37:03.627Z,9.57
2023-03-26T22:39:32.315Z,6.63
2023-03-26T22:42:02.175Z,7.18
2023-03-26T22:44:31.421Z,13.98
2023-03-26T22:47:01.506Z,13.20
2023-03-26T22:49:31.504Z,10.93
2023-03-26T22:52:01.046Z,14.73
2023-03-26T22:54:29.536Z,14.57
2023-03-26T22:56:57.802Z,12.23
2023-03-26T22:59:26.531Z,16.45
2023-03-26T23:01:54.985Z,18.17
2023-03-26T23:04:31.596Z,16.48
2023-03-26T23:07:01.934Z,17.48
2023-03-26T23:09:30.666Z,16.92
2023-03-26T23:11:58.946Z,16.40
2023-03-26T23:14:28.746Z,13.57
2023-03-26T23:16:57.295Z,17.08
2023-03-26T23:19:26.514Z,17.40
2023-03-26T23:21:54.825Z,19.90
2023-03-26T23:24:26.450Z,22.50
2023-03-26T23:26:54.906Z,18.50
2023-03-26T23:29:23.340Z,20.10
2023-03-26T23:31:53.079Z,19.60
2023-03-26T23:34:21.655Z,20.27
2023-03-26T23:36:50.214Z,19.73
2023-03-26T23:39:18.961Z,23.40
2023-03-26T23:41:48.570Z,22.40
2023-03-26T23:44:17.195Z,21.70
2023-03-26T23:46:45.422Z,21.58
2023-03-26T23:49:15.083Z,22.98
2023-03-26T23:51:43.269Z,20.67
2023-03-26T23:54:11.809Z,22.50
2023-03-26T23:56:40.117Z,21.30
2023-03-26T23:59:10.037Z,30.70
